sensor_id;sensor_type;location;lat;lon;timestamp;temperature;humidity
19646;DHT22;9971;52.446;13.452;2022-09-29T00:00:28;10.30;99.90
19646;DHT22;9971;52.446;13.452;2022-09-29T00:05:30;10.30;99.90
19646;DHT22;9971;52.446;13.452;2022-09-29T00:10:33;10.20;99.90
19646;DHT22;9971;52.446;13.452;2022-09-29T00:15:35;10.20;99.90
19646;DHT22;9971;52.446;13.452;2022-09-29T00:20:37;10.10;99.90
19646;DHT22;9971;52.446;13.452;2022-09-29T00:25:40;10.10;99.90
19646;DHT22;9971;52.446;13.452;2022-09-29T00:30:43;10.00;99.90
19646;DHT22;9971;52.446;13.452;2022-09-29T00:35:54;10.00;99.90
19646;DHT22;9971;52.446;13.452;2022-09-29T00:40:47;9.90;99.90
19646;DHT22;9971;52.446;13.452;2022-09-29T00:45:50;9.90;99.90
19646;DHT22;9971;52.446;13.452;2022-09-29T00:50:52;9.80;99.90
19646;DHT22;9971;52.446;13.452;2022-09-29T00:55:56;9.80;99.90
19646;DHT22;9971;52.446;13.452;2022-09-29T01:00:57;9.70;99.90
19646;DHT22;9971;52.446;13.452;2022-09-29T01:06:00;9.70;99.90
19646;DHT22;9971;52.446;13.452;2022-09-29T01:11:01;9.60;99.90
19646;DHT22;9971;52.446;13.452;2022-09-29T01:16:03;9.60;99.90
19646;DHT22;9971;52.446;13.452;2022-09-29T01:21:46;9.50;99.90
19646;DHT22;9971;52.446;13.452;2022-09-29T01:31:55;9.30;99.90
19646;DHT22;9971;52.446;13.452;2022-09-29T01:37:00;9.20;99.90
19646;DHT22;9971;52.446;13.452;2022-09-29T01:42:11;9.30;99.90
19646;DHT22;9971;52.446;13.452;2022-09-29T01:47:26;9.30;99.90
19646;DHT22;9971;52.446;13.452;2022-09-29T01:52:28;9.30;99.90
19646;DHT22;9971;52.446;13.452;2022-09-29T01:58:02;9.30;99.90
19646;DHT22;9971;52.446;13.452;2022-09-29T02:02:48;9.30;99.90
19646;DHT22;9971;52.446;13.452;2022-09-29T02:07:48;9.30;99.90
19646;DHT22;9971;52.446;13.452;2022-09-29T02:12:51;9.30;99.90
19646;DHT22;9971;52.446;13.452;2022-09-29T02:17:53;9.30;99.90
19646;DHT22;9971;52.446;13.452;2022-09-29T02:22:56;9.30;99.90
19646;DHT22;9971;52.446;13.452;2022-09-29T02:27:57;9.40;99.90
19646;DHT22;9971;52.446;13.452;2022-09-29T02:33:00;9.30;99.90
19646;DHT22;9971;52.446;13.452;2022-09-29T02:38:03;9.40;99.90
19646;DHT22;9971;52.446;13.452;2022-09-29T02:43:12;9.40;99.90
19646;DHT22;9971;52.446;13.452;2022-09-29T02:48:20;9.40;99.90
19646;DHT22;9971;52.446;13.452;2022-09-29T02:53:44;9.40;99.90
19646;DHT22;9971;52.446;13.452;2022-09-29T02:58:56;9.50;99.90
19646;DHT22;9971;52.446;13.452;2022-09-29T03:04:00;9.50;99.90
19646;DHT22;9971;52.446;13.452;2022-09-29T03:09:02;9.60;99.90
19646;DHT22;9971;52.446;13.452;2022-09-29T03:14:05;9.60;99.90
19646;DHT22;9971;52.446;13.452;2022-09-29T03:19:07;9.70;99.90
19646;DHT22;9971;52.446;13.452;2022-09-29T03:24:10;9.70;99.90
19646;DHT22;9971;52.446;13.452;2022-09-29T03:29:14;9.80;99.90
19646;DHT22;9971;52.446;13.452;2022-09-29T03:34:16;9.80;99.90
19646;DHT22;9971;52.446;13.452;2022-09-29T03:39:18;9.80;99.90
19646;DHT22;9971;52.446;13.452;2022-09-29T03:44:20;9.80;99.90
19646;DHT22;9971;52.446;13.452;2022-09-29T03:49:22;9.80;99.90
19646;DHT22;9971;52.446;13.452;2022-09-29T03:54:25;9.80;99.90
19646;DHT22;9971;52.446;13.452;2022-09-29T03:59:27;9.80;99.90
19646;DHT22;9971;52.446;13.452;2022-09-29T04:04:33;9.90;99.90
19646;DHT22;9971;52.446;13.452;2022-09-29T04:09:36;9.90;99.90
19646;DHT22;9971;52.446;13.452;2022-09-29T04:14:38;9.90;99.90
19646;DHT22;9971;52.446;13.452;2022-09-29T04:19:40;9.90;99.90
19646;DHT22;9971;52.446;13.452;2022-09-29T04:24:43;9.90;99.90
19646;DHT22;9971;52.446;13.452;2022-09-29T04:29:46;9.90;99.90
19646;DHT22;9971;52.446;13.452;2022-09-29T04:34:51;9.90;99.90
19646;DHT22;9971;52.446;13.452;2022-09-29T04:39:54;9.90;99.90
19646;DHT22;9971;52.446;13.452;2022-09-29T04:44:56;10.00;99.90
19646;DHT22;9971;52.446;13.452;2022-09-29T04:49:59;10.00;99.90
19646;DHT22;9971;52.446;13.452;2022-09-29T04:55:02;9.90;99.90
19646;DHT22;9971;52.446;13.452;2022-09-29T05:00:04;9.90;99.90
19646;DHT22;9971;52.446;13.452;2022-09-29T05:05:08;10.00;99.90
19646;DHT22;9971;52.446;13.452;2022-09-29T05:10:10;10.00;99.90
19646;DHT22;9971;52.446;13.452;2022-09-29T05:40:13;10.00;99.90
19646;DHT22;9971;52.446;13.452;2022-09-29T05:45:16;12.80;99.90
19646;DHT22;9971;52.446;13.452;2022-09-29T05:50:18;11.70;99.90
19646;DHT22;9971;52.446;13.452;2022-09-29T05:55:20;11.00;99.90
19646;DHT22;9971;52.446;13.452;2022-09-29T06:00:23;10.70;99.90
19646;DHT22;9971;52.446;13.452;2022-09-29T06:05:26;10.50;99.90
19646;DHT22;9971;52.446;13.452;2022-09-29T06:10:28;10.40;99.90
19646;DHT22;9971;52.446;13.452;2022-09-29T06:15:30;10.30;99.90
19646;DHT22;9971;52.446;13.452;2022-09-29T06:45:33;10.30;99.90
19646;DHT22;9971;52.446;13.452;2022-09-29T07:15:36;13.10;99.90
19646;DHT22;9971;52.446;13.452;2022-09-29T07:45:43;14.60;99.90
19646;DHT22;9971;52.446;13.452;2022-09-29T08:15:41;15.60;99.90
19646;DHT22;9971;52.446;13.452;2022-09-29T08:45:45;16.40;99.90
19646;DHT22;9971;52.446;13.452;2022-09-29T09:15:52;17.00;99.90
19646;DHT22;9971;52.446;13.452;2022-09-29T09:45:55;17.50;99.90
19646;DHT22;9971;52.446;13.452;2022-09-29T09:50:57;17.90;99.90
19646;DHT22;9971;52.446;13.452;2022-09-29T10:21:00;16.70;99.90
19646;DHT22;9971;52.446;13.452;2022-09-29T10:26:26;17.50;99.90
19646;DHT22;9971;52.446;13.452;2022-09-29T10:31:37;17.00;99.90
19646;DHT22;9971;52.446;13.452;2022-09-29T10:36:48;16.40;99.90
19646;DHT22;9971;52.446;13.452;2022-09-29T10:41:49;16.10;99.90
19646;DHT22;9971;52.446;13.452;2022-09-29T10:46:54;16.20;99.90
19646;DHT22;9971;52.446;13.452;2022-09-29T10:52:01;16.10;99.90
19646;DHT22;9971;52.446;13.452;2022-09-29T10:57:12;16.30;99.90
19646;DHT22;9971;52.446;13.452;2022-09-29T11:02:17;16.20;99.90
19646;DHT22;9971;52.446;13.452;2022-09-29T11:07:16;16.40;99.90
19646;DHT22;9971;52.446;13.452;2022-09-29T11:12:27;16.40;99.90
19646;DHT22;9971;52.446;13.452;2022-09-29T11:17:36;16.70;99.90
19646;DHT22;9971;52.446;13.452;2022-09-29T11:22:50;16.80;99.90
19646;DHT22;9971;52.446;13.452;2022-09-29T11:28:03;16.70;99.90
19646;DHT22;9971;52.446;13.452;2022-09-29T11:33:11;16.50;99.90
19646;DHT22;9971;52.446;13.452;2022-09-29T11:38:28;16.50;99.90
19646;DHT22;9971;52.446;13.452;2022-09-29T11:43:34;16.30;99.90
19646;DHT22;9971;52.446;13.452;2022-09-29T11:53:53;16.50;99.90
19646;DHT22;9971;52.446;13.452;2022-09-29T11:59:04;16.70;99.90
19646;DHT22;9971;52.446;13.452;2022-09-29T12:04:20;16.60;99.90
19646;DHT22;9971;52.446;13.452;2022-09-29T12:40:00;16.60;99.90
19646;DHT22;9971;52.446;13.452;2022-09-29T12:50:21;18.40;99.90
19646;DHT22;9971;52.446;13.452;2022-09-29T12:55:45;18.80;99.90
19646;DHT22;9971;52.446;13.452;2022-09-29T13:00:46;18.70;99.90
19646;DHT22;9971;52.446;13.452;2022-09-29T13:17:05;17.80;99.90
19646;DHT22;9971;52.446;13.452;2022-09-29T13:22:18;17.50;99.90
19646;DHT22;9971;52.446;13.452;2022-09-29T13:27:24;17.50;99.90
19646;DHT22;9971;52.446;13.452;2022-09-29T13:32:26;17.40;99.90
19646;DHT22;9971;52.446;13.452;2022-09-29T13:37:41;17.10;99.90
19646;DHT22;9971;52.446;13.452;2022-09-29T13:42:39;17.40;99.90
19646;DHT22;9971;52.446;13.452;2022-09-29T13:47:48;18.10;99.90
19646;DHT22;9971;52.446;13.452;2022-09-29T13:52:54;18.30;99.90
19646;DHT22;9971;52.446;13.452;2022-09-29T13:57:57;18.20;99.90
19646;DHT22;9971;52.446;13.452;2022-09-29T14:03:00;18.40;99.90
19646;DHT22;9971;52.446;13.452;2022-09-29T14:08:15;18.90;99.90
19646;DHT22;9971;52.446;13.452;2022-09-29T14:13:23;19.40;99.90
19646;DHT22;9971;52.446;13.452;2022-09-29T14:18:32;19.50;99.90
19646;DHT22;9971;52.446;13.452;2022-09-29T14:23:50;19.70;99.90
19646;DHT22;9971;52.446;13.452;2022-09-29T14:28:53;19.40;99.90
19646;DHT22;9971;52.446;13.452;2022-09-29T14:33:55;19.20;99.90
19646;DHT22;9971;52.446;13.452;2022-09-29T14:38:59;19.20;99.90
19646;DHT22;9971;52.446;13.452;2022-09-29T14:44:06;19.00;99.90
19646;DHT22;9971;52.446;13.452;2022-09-29T14:49:24;19.00;99.90
19646;DHT22;9971;52.446;13.452;2022-09-29T14:54:23;18.70;99.90
19646;DHT22;9971;52.446;13.452;2022-09-29T14:59:33;18.20;99.90
19646;DHT22;9971;52.446;13.452;2022-09-29T15:04:38;17.90;99.90
19646;DHT22;9971;52.446;13.452;2022-09-29T15:09:42;17.80;99.90
19646;DHT22;9971;52.446;13.452;2022-09-29T15:14:42;17.60;99.90
19646;DHT22;9971;52.446;13.452;2022-09-29T15:25:22;17.20;99.90
19646;DHT22;9971;52.446;13.452;2022-09-29T15:30:23;17.00;99.90
19646;DHT22;9971;52.446;13.452;2022-09-29T15:35:25;16.90;99.90
19646;DHT22;9971;52.446;13.452;2022-09-29T15:40:27;16.80;99.90
19646;DHT22;9971;52.446;13.452;2022-09-29T15:45:29;16.70;99.90
19646;DHT22;9971;52.446;13.452;2022-09-29T15:50:32;16.70;99.90
19646;DHT22;9971;52.446;13.452;2022-09-29T15:55:34;16.60;99.90
19646;DHT22;9971;52.446;13.452;2022-09-29T16:00:45;16.70;99.90
19646;DHT22;9971;52.446;13.452;2022-09-29T16:05:55;16.80;99.90
19646;DHT22;9971;52.446;13.452;2022-09-29T16:10:55;16.90;99.90
19646;DHT22;9971;52.446;13.452;2022-09-29T16:15:57;16.60;99.90
19646;DHT22;9971;52.446;13.452;2022-09-29T16:21:01;16.40;99.90
19646;DHT22;9971;52.446;13.452;2022-09-29T16:26:11;16.10;99.90
19646;DHT22;9971;52.446;13.452;2022-09-29T16:31:18;15.90;99.90
19646;DHT22;9971;52.446;13.452;2022-09-29T16:36:22;15.70;99.90
19646;DHT22;9971;52.446;13.452;2022-09-29T16:41:25;15.50;99.90
19646;DHT22;9971;52.446;13.452;2022-09-29T16:46:26;15.30;99.90
19646;DHT22;9971;52.446;13.452;2022-09-29T16:51:29;15.10;99.90
19646;DHT22;9971;52.446;13.452;2022-09-29T16:56:38;15.00;99.90
19646;DHT22;9971;52.446;13.452;2022-09-29T17:01:41;14.80;99.90
19646;DHT22;9971;52.446;13.452;2022-09-29T17:06:45;14.60;99.90
19646;DHT22;9971;52.446;13.452;2022-09-29T17:11:47;14.50;99.90
19646;DHT22;9971;52.446;13.452;2022-09-29T17:16:49;14.40;99.90
19646;DHT22;9971;52.446;13.452;2022-09-29T17:21:52;14.20;99.90
19646;DHT22;9971;52.446;13.452;2022-09-29T17:26:54;14.10;99.90
19646;DHT22;9971;52.446;13.452;2022-09-29T17:32:05;14.00;99.90
19646;DHT22;9971;52.446;13.452;2022-09-29T17:37:04;13.80;99.90
19646;DHT22;9971;52.446;13.452;2022-09-29T17:42:06;13.70;99.90
19646;DHT22;9971;52.446;13.452;2022-09-29T17:47:11;13.50;99.90
19646;DHT22;9971;52.446;13.452;2022-09-29T17:52:12;13.30;99.90
19646;DHT22;9971;52.446;13.452;2022-09-29T17:57:19;13.10;99.90
19646;DHT22;9971;52.446;13.452;2022-09-29T18:02:18;12.90;99.90
19646;DHT22;9971;52.446;13.452;2022-09-29T18:07:20;12.90;99.90
19646;DHT22;9971;52.446;13.452;2022-09-29T18:12:22;12.70;99.90
19646;DHT22;9971;52.446;13.452;2022-09-29T18:17:25;12.60;99.90
19646;DHT22;9971;52.446;13.452;2022-09-29T18:22:27;12.50;99.90
19646;DHT22;9971;52.446;13.452;2022-09-29T18:27:30;12.40;99.90
19646;DHT22;9971;52.446;13.452;2022-09-29T18:32:33;12.30;99.90
19646;DHT22;9971;52.446;13.452;2022-09-29T18:37:35;12.20;99.90
19646;DHT22;9971;52.446;13.452;2022-09-29T18:42:40;12.10;99.90
19646;DHT22;9971;52.446;13.452;2022-09-29T18:47:41;12.00;99.90
19646;DHT22;9971;52.446;13.452;2022-09-29T18:52:45;11.90;99.90
19646;DHT22;9971;52.446;13.452;2022-09-29T18:57:46;11.80;99.90
19646;DHT22;9971;52.446;13.452;2022-09-29T19:02:48;11.70;99.90
19646;DHT22;9971;52.446;13.452;2022-09-29T19:07:52;11.70;99.90
19646;DHT22;9971;52.446;13.452;2022-09-29T19:12:53;11.60;99.90
19646;DHT22;9971;52.446;13.452;2022-09-29T19:17:56;11.40;99.90
19646;DHT22;9971;52.446;13.452;2022-09-29T19:22:57;11.40;99.90
19646;DHT22;9971;52.446;13.452;2022-09-29T19:28:00;11.30;99.90
19646;DHT22;9971;52.446;13.452;2022-09-29T19:33:02;11.30;99.90
19646;DHT22;9971;52.446;13.452;2022-09-29T19:38:04;11.10;99.90
19646;DHT22;9971;52.446;13.452;2022-09-29T19:43:07;11.10;99.90
19646;DHT22;9971;52.446;13.452;2022-09-29T19:48:11;11.00;99.90
19646;DHT22;9971;52.446;13.452;2022-09-29T19:53:11;11.10;99.90
19646;DHT22;9971;52.446;13.452;2022-09-29T19:58:13;10.90;99.90
19646;DHT22;9971;52.446;13.452;2022-09-29T20:03:16;10.80;99.90
19646;DHT22;9971;52.446;13.452;2022-09-29T20:33:19;10.80;99.90
19646;DHT22;9971;52.446;13.452;2022-09-29T20:38:22;13.80;99.90
19646;DHT22;9971;52.446;13.452;2022-09-29T21:08:26;12.30;99.90
19646;DHT22;9971;52.446;13.452;2022-09-29T21:38:28;14.70;99.90
19646;DHT22;9971;52.446;13.452;2022-09-29T21:43:31;16.20;99.90
19646;DHT22;9971;52.446;13.452;2022-09-29T21:48:33;13.50;99.90
19646;DHT22;9971;52.446;13.452;2022-09-29T22:18:35;11.90;99.90
19646;DHT22;9971;52.446;13.452;2022-09-29T22:48:37;14.60;99.90
19646;DHT22;9971;52.446;13.452;2022-09-29T22:53:39;16.10;99.90
19646;DHT22;9971;52.446;13.452;2022-09-29T22:58:41;13.30;99.90
19646;DHT22;9971;52.446;13.452;2022-09-29T23:28:43;11.50;99.90
19646;DHT22;9971;52.446;13.452;2022-09-29T23:33:50;14.20;99.90
19646;DHT22;9971;52.446;13.452;2022-09-29T23:38:52;12.10;99.90
19646;DHT22;9971;52.446;13.452;2022-09-29T23:44:00;10.70;99.90
